Аэропорт: им. Гейдара Алиева. Баку

ICAO: UBBB

METAR:
2019/05/26 14:00
UBBB 261400Z 34016KT 9999 -SHRA SCT062CB BKN100 20/16 Q1010 R88/CLRD// NOSIG
METAR:
2019/05/26 12:15
TAF TAF UBBB 261114Z 2612/2712 34016KT 9999 FEW050CB BKN100 TX24/2612Z TN17/2702Z 
      TEMPO 2612/2624 33018G28KT -SHRA FEW013 SCT040CB PROB40 
      TEMPO 2614/2702 -TSRA SCT010 SCT030CB